Glovertown, Canada
Current Conditions -  °F | °C
As of 2:00 PM on Thursday 18 Dec 2014 (Local Time) from CYQX Reporting Station
Drizzle Drizzle  
Wind Chill: 26°   Ceiling: 200
Heat Index: 36°   Visibility: 1.7mi
Dew Point: 36°   Wind: 15mph
Humidity: 100%   Direction: 120°ESE
Pressure: 29.83"   Gusts: 21mph
Location:  48.67°N, 54.05°W
Report Text: CYQX 181700Z 12013G18KT 1 3/4SM -DZ BR OVC002 02/02 A2983 RMK FG3SF5 SLP110
Loading
Personal Weather Stations






























Interactive Weather Map New forecast layout! Learn more

10-Day Weather Forecast

Advertisements
Track Severe Weather on mobile